Tiempo atmosférico en la estación meteorológica de Larraga, Navarra (375 m.)



Fecha
DESCASC
Temp. máxima en grados centígrados (hora)
DESCASC
Temp. mínima en grados centígrados (hora)
DESCASC
Temp. media en grados centígrados
DESCASC
Racha de viento máxima en m/sg (hora)
DESCASC
Velocidad máxima media en intervalos de 10 minutos(hora)
DESCASC
Precipitaciones diarias en mm
DESCASC
Precipitaciones de 00:00 a 06:00 en mm
DESCASC
Precipitaciones de 06:00 a 12:00 en mm
DESCASC
Precipitaciones de 12:00 a 18:00 en mm
DESCASC
Precipitaciones de 18:00 a 24:00 en mm
DESCASC
23-06-2019 35 (17:30) 20 (05:40) 27.5 12.78 (10:10) 9.72 (10:00) 0 0 0 0 0
22-06-2019 30.2 (18:00) 8.6 (06:10) 19.4 6.94 (17:50) 4.17 (00:20) 0 0 0 0 0
21-06-2019 -- (--) -- (--) -- -- (--) -- (--) -- -- -- 0 0
20-06-2019 -- (--) -- (--) -- -- (--) -- (--) -- 0 0 -- --
19-06-2019 -- (--) -- (--) -- -- (--) -- (--) -- -- -- -- 0
18-06-2019 -- (--) -- (--) -- -- (--) -- (--) -- 0 0 0 --
17-06-2019 33.3 (17:30) 12.3 (00:00) 22.8 9.72 (16:30) 6.11 (00:20) 0 0 0 0 0
16-06-2019 29.2 (17:30) 8.4 (00:00) 18.8 9.17 (23:30) 6.67 (23:30) 0 0 0 0 0
15-06-2019 24 (16:10) 11.2 (00:00) 17.6 12.5 (20:30) 8.61 (19:10) 0 0 0 0 0
14-06-2019 26.7 (17:20) 10.2 (00:00) 18.5 12.78 (20:20) 9.44 (20:20) 0 0 0 0 0
13-06-2019 27.4 (17:40) 7.6 (00:00) 17.5 17.22 (17:20) 11.94 (17:50) 0 0 0 0 0
12-06-2019 22.1 (19:00) 4.1 (00:00) 13.1 14.17 (21:20) 7.5 (21:30) 0 0 0 0 0
11-06-2019 17.6 (16:00) 9.2 (00:00) 13.4 14.17 (13:50) 10.83 (13:50) 2.4 2.2 0.2 0 0
10-06-2019 19.2 (16:50) 10.6 (00:00) 14.9 18.06 (18:20) 9.72 (18:50) 0 0 0 0 0
09-06-2019 26.3 (15:30) 12.3 (00:00) 19.3 15.56 (20:40) 10.56 (20:40) 0 0 0 0 0
08-06-2019 24.9 (17:00) 6.3 (00:00) 15.6 9.72 (13:30) 6.39 (13:40) 0 0 0 0 0
07-06-2019 21.8 (16:20) 9.8 (00:00) 15.8 18.33 (01:40) 13.61 (01:50) 0 0 0 0 0
06-06-2019 25.2 (17:30) 8.6 (00:00) 16.9 21.39 (22:20) 14.17 (22:30) 0 0 0 0 0
05-06-2019 17.2 (16:00) 10.6 (00:00) 13.9 11.39 (17:20) 6.94 (15:10) 15.6 9.6 6 0 0
04-06-2019 33.2 (15:00) 12.8 (00:00) 23 16.11 (18:00) 11.11 (19:10) 0 0 0 0 0
03-06-2019 31.3 (18:20) 15.3 (00:00) 23.3 9.72 (00:20) 5 (01:10) 0 0 0 0 0
02-06-2019 32 (18:40) 12.3 (00:00) 22.2 11.11 (22:20) 7.22 (23:30) 0.2 0 0 0 0.2
01-06-2019 31.2 (18:30) 11.4 (00:00) 21.3 8.89 (12:10) 5.28 (11:00) 0 0 0 0 0
31-05-2019 29.2 (18:20) 10.7 (00:00) 20 8.61 (00:10) 6.39 (00:10) 0 0 0 0 0
30-05-2019 27.3 (16:20) 7.3 (00:00) 17.3 11.94 (21:20) 7.5 (18:40) 0 0 0 0 0
29-05-2019 19.2 (17:20) 10.1 (00:00) 14.7 13.33 (16:20) 8.33 (16:00) 0 0 0 0 0
28-05-2019 16.6 (13:00) 8.7 (00:00) 12.7 15 (16:10) 11.11 (16:10) 0 0 0 0 0

Gráficas

Temp. máximas Temp. mínimas Temp. medias Precipitaciones Rachas de viento máximas Velocidades máximas media en intervalos de 10 minutos

Datos horarios

Fecha y hora oficial Temperatura (ºC) Velocidad del viento (km/h) Dirección del viento Racha (km/h) Dirección de racha Precipitación (mm) Presión (hPa) Tendencia (hPa) Humedad (%)
2019-06-26 23:00:00 30.4 39 Sudeste 67 Sudeste 0 -- -- 32
2019-06-26 22:00:00 31.9 44 Sudeste 83 Sudeste 0 -- -- 29
2019-06-26 21:00:00 33.8 41 Sudeste 57 Sudeste 0 -- -- 27
2019-06-26 20:00:00 34.8 39 Sudeste 63 Sudeste 0 -- -- 26
2019-06-26 19:00:00 36.4 47 Sudeste 63 Sudeste 0 -- -- 24
2019-06-26 18:00:00 37 41 Sudeste 62 Sudeste 0 -- -- 24
2019-06-26 17:00:00 36.5 39 Sudeste 60 Sudeste 0 -- -- 26
2019-06-26 16:00:00 36.4 38 Sudeste 65 Sudeste 0 -- -- 25
2019-06-26 15:00:00 35.6 39 Sudeste 55 Sudeste 0 -- -- 26
2019-06-26 14:00:00 34.3 24 Sudeste 41 Sudeste 0 -- -- 32
2019-06-26 13:00:00 32.3 24 Sur 39 Sur 0 -- -- 36
2019-06-26 12:00:00 29.2 17 Sur 31 Sur 0 -- -- 46
2019-06-26 11:00:00 27.5 18 Sur 26 Sur 0 -- -- 51
2019-06-26 10:00:00 24.2 14 Sudeste 25 Sudeste 0 -- -- 67
2019-06-26 09:00:00 22.2 11 Sudeste 22 Sur 0 -- -- 75
2019-06-26 08:00:00 19.8 2 Sudoeste 8 Sur 0 -- -- 84
2019-06-26 07:00:00 18.8 3 Sur 13 Sudeste 0 -- -- 87
2019-06-26 06:00:00 19.3 9 Sur 14 Sudeste 0 -- -- 83
2019-06-26 05:00:00 20.5 3 Sudeste 15 Sur 0 -- -- 75
2019-06-26 04:00:00 22.4 10 Sur 61 Sudeste 0 -- -- 67
2019-06-26 03:00:00 24 38 Sudeste 54 Sudeste 0 -- -- 62
2019-06-26 02:00:00 25.6 36 Sudeste 54 Sudeste 0 -- -- 55
2019-06-26 01:00:00 27.5 31 Sudeste 49 Sudeste 0 -- -- 49
2019-06-26 00:00:00 24.9 6 Norte 19 Noroeste 0 -- -- 67
2019-06-25 23:00:00 26.2 12 Norte 25 Norte 0 -- -- 65
2019-06-25 22:00:00 27.3 16 Norte 24 Norte 0 -- -- 61
2019-06-25 21:00:00 32.4 15 Este 40 Sudeste 0 -- -- 34
2019-06-25 20:00:00 34.1 24 Sudeste 37 Sudeste 0 -- -- 33
2019-06-25 19:00:00 35.2 23 Sudeste 43 Sudeste 0 -- -- 31
2019-06-25 18:00:00 34.9 24 Sudeste 36 Sudeste 0 -- -- 32
2019-06-25 17:00:00 34.2 26 Este 38 Sudeste 0 -- -- 34
2019-06-25 16:00:00 33 26 Sudeste 45 Sudeste 0 -- -- 34
2019-06-25 15:00:00 32.4 20 Sudeste 37 Sudeste 0 -- -- 35
2019-06-25 14:00:00 30.4 13 Sudeste 28 Sur 0 -- -- 40
2019-06-25 13:00:00 28.2 8 Sur 23 Sur 0 -- -- 44
2019-06-25 12:00:00 26.2 9 Sudeste 15 Sudeste 0 -- -- 47
2019-06-25 11:00:00 23.4 7 Sudeste 12 Sudeste 0 -- -- 54
2019-06-25 10:00:00 21.3 3 Este 8 Nordeste 0 -- -- 65
2019-06-25 09:00:00 19.8 5 Nordeste 8 Norte 0 -- -- 73
2019-06-25 08:00:00 18.2 4 Noroeste 10 Noroeste 0 -- -- 75
2019-06-25 07:00:00 17.6 6 Noroeste 10 Noroeste 0 -- -- 77
2019-06-25 06:00:00 18.1 6 Noroeste 9 Noroeste 0 -- -- 77
2019-06-25 05:00:00 18.4 6 Noroeste 9 Noroeste 0 -- -- 78
2019-06-25 04:00:00 18.8 3 Oeste 9 Oeste 0 -- -- 73
2019-06-25 03:00:00 19.3 4 Oeste 13 Noroeste 0 -- -- 72
2019-06-25 02:00:00 19.8 12 Noroeste 16 Noroeste 0 -- -- 69
2019-06-25 01:00:00 22.3 5 Oeste 24 Sur 0 -- -- 58
2019-06-25 00:00:00 25.4 9 Sudoeste 17 Sur 0 -- -- 35
2019-06-24 23:00:00 25.9 10 Sudeste 16 Sudeste 0 -- -- 36
2019-06-24 22:00:00 27.4 9 Sur 26 Sudeste 0 -- -- 32
2019-06-24 21:00:00 29.6 18 Sur 31 Sur 0 -- -- 30
2019-06-24 20:00:00 31.2 19 Sudeste 31 Sudeste 0 -- -- 28
2019-06-24 19:00:00 31.9 19 Sur 43 Sudeste 0 -- -- 27
2019-06-24 18:00:00 32.6 25 Sudeste 40 Sudeste 0 -- -- 24
2019-06-24 17:00:00 33.3 29 Sudeste 44 Sudeste 0 -- -- 24
2019-06-24 16:00:00 31.3 26 Sudeste 42 Sudeste 0 -- -- 26
2019-06-24 15:00:00 29.1 27 Sudeste 46 Sudeste 0 -- -- 28
2019-06-24 14:00:00 29.3 28 Sudeste 55 Sudeste 0 -- -- 29
2019-06-24 13:00:00 29.2 22 Sudeste 36 Sudeste 0 -- -- 34
2019-06-24 12:00:00 29 24 Sur 35 Sudeste 0 -- -- 35
2019-06-24 11:00:00 27.2 21 Sudeste 35 Sudeste 0 -- -- 37
2019-06-24 10:00:00 25 23 Sudeste 42 Sudeste 0 -- -- 41
2019-06-24 09:00:00 23.1 28 Sudeste 44 Sudeste 0 -- -- 43
2019-06-24 08:00:00 22.2 31 Sudeste 46 Sudeste 0 -- -- 43
2019-06-24 07:00:00 22 27 Sudeste 37 Sudeste 0 -- -- 43
2019-06-24 06:00:00 22.4 28 Sudeste 38 Sudeste 0 -- -- 41
2019-06-24 05:00:00 21.2 9 Sur 19 Sudeste 0 -- -- 46
2019-06-24 04:00:00 21.3 8 Sudeste 23 Sudeste 0 -- -- 49
2019-06-24 03:00:00 20.8 3 Sur 12 Noroeste 0 -- -- 61
2019-06-24 02:00:00 21 5 Noroeste 15 Noroeste 0 -- -- 73
2019-06-24 01:00:00 22 12 Noroeste 15 Noroeste 0 -- -- 71
2019-06-24 00:00:00 25.2 9 Nordeste 18 Norte 0 -- -- 56
2019-06-23 23:00:00 25.6 13 Norte 21 Norte 0 -- -- 56
2019-06-23 22:00:00 28.2 9 Norte 16 Norte 0 -- -- 47
2019-06-23 21:00:00 31.1 9 Sudeste 30 Sudeste 0 -- -- 33
2019-06-23 20:00:00 32.7 22 Sudeste 30 Sudeste 0 -- -- 30
2019-06-23 19:00:00 34 20 Sudeste 36 Sudeste 0 -- -- 28
2019-06-23 18:00:00 34.8 29 Sudeste 43 Sudeste 0 -- -- 26
2019-06-23 17:00:00 34.3 18 Sudeste 39 Sudeste 0 -- -- 27
2019-06-23 16:00:00 33.6 18 Sur 39 Sudeste 0 -- -- 28
2019-06-23 15:00:00 33.5 21 Sudeste 45 Sudeste 0 -- -- 29
2019-06-23 14:00:00 32.4 22 Sudeste 45 Sudeste 0 -- -- 34
2019-06-23 13:00:00 30.7 24 Sudeste 39 Sudeste 0 -- -- 38
2019-06-23 12:00:00 29 30 Sudeste 45 Sudeste 0 -- -- 42
2019-06-23 11:00:00 27 27 Sudeste 46 Sudeste 0 -- -- 47
2019-06-23 10:00:00 24.7 35 Sudeste 45 Sudeste 0 -- -- 52
2019-06-23 09:00:00 21.8 19 Sudeste 30 Sudeste 0 -- -- 61
2019-06-23 08:00:00 20.2 17 Sudeste 38 Sudeste 0 -- -- 66
2019-06-23 07:00:00 20.1 27 Sudeste 34 Sudeste 0 -- -- 67
2019-06-23 06:00:00 20.5 24 Sudeste 35 Sudeste 0 -- -- 66
2019-06-23 05:00:00 20.5 14 Sur 22 Sur 0 -- -- 66
2019-06-23 04:00:00 20.4 5 Sur 21 Sudeste 0 -- -- 61
2019-06-23 03:00:00 21.4 13 Sudeste 23 Sudeste 0 -- -- 55
2019-06-23 02:00:00 21.3 8 Sudeste 21 Sudeste 0 -- -- 53
2019-06-23 01:00:00 22 14 Sudeste 25 Este 0 -- -- 50
2019-06-23 00:00:00 20.8 4 Nordeste 9 Este 0 -- -- 60
2019-06-22 23:00:00 22.7 4 Norte 8 Nordeste 0 -- -- 57
2019-06-22 22:00:00 26.3 6 Este 8 Sudeste 0 -- -- 41
2019-06-22 21:00:00 27.8 6 Sudeste 15 Sudeste 0 -- -- 38
2019-06-22 20:00:00 29.1 8 Sudeste 22 Sur 0 -- -- 36
2019-06-22 19:00:00 29.7 12 Sudeste 24 Sur 0 -- -- 33
2019-06-22 18:00:00 30.2 6 Sudeste 25 Sudeste 0 -- -- 33
2019-06-22 17:00:00 29.6 11 Sur 24 Sudeste 0 -- -- 35
2019-06-22 16:00:00 28.4 8 Este 23 Sudeste 0 -- -- 37
2019-06-22 15:00:00 27.3 10 Sudeste 22 Sudeste 0 -- -- 37
2019-06-22 14:00:00 25.5 10 Sudeste 22 Sudeste 0 -- -- 40
2019-06-22 13:00:00 23.5 10 Este 19 Este 0 -- -- 43
2019-06-22 12:00:00 21.2 7 Este 17 Sudeste 0 -- -- 49
2019-06-22 11:00:00 18.4 5 Noroeste 10 Noroeste 0 -- -- 58
2019-06-22 10:00:00 15.9 5 Oeste 13 Noroeste 0 -- -- 70
2019-06-22 09:00:00 13.2 5 Noroeste 12 Noroeste 0 -- -- 80
2019-06-22 08:00:00 10.4 0 Calma 8 Noroeste 0 -- -- 86
2019-06-22 07:00:00 9 5 Noroeste 8 Noroeste 0 -- -- 90
2019-06-22 06:00:00 8.8 8 Noroeste 12 Noroeste 0 -- -- 89
2019-06-22 05:00:00 10 6 Noroeste 13 Noroeste 0 -- -- 87
2019-06-22 04:00:00 10.5 8 Noroeste 16 Noroeste 0 -- -- 86
2019-06-22 03:00:00 10.7 8 Noroeste 17 Noroeste 0 -- -- 86
2019-06-22 02:00:00 11.3 8 Noroeste 15 Noroeste 0 -- -- 84
2019-06-22 01:00:00 11.6 11 Noroeste 21 Norte 0 -- -- 84
2019-06-22 00:00:00 12.2 14 Noroeste 19 Noroeste 0 -- -- 83
2019-06-21 23:00:00 13.7 10 Norte 24 Norte 0 -- -- 75
2019-06-21 22:00:00 15.8 17 Norte 40 Norte 0 -- -- 66
2019-06-21 21:00:00 17.8 20 Norte 44 Norte 0 -- -- 59
2019-06-21 20:00:00 19.5 22 Norte 34 Norte 0 -- -- 55
2019-06-21 19:00:00 20.3 20 Norte 35 Norte 0 -- -- 55
2019-06-21 18:00:00 20.6 22 Norte 36 Norte 0 -- -- 54
2019-06-21 17:00:00 21.1 22 Norte 37 Norte 0 -- -- 52
2019-06-21 16:00:00 20.6 24 Norte 37 Noroeste 0 -- -- 53
2019-06-21 15:00:00 20.5 22 Norte 39 Norte 0 -- -- 54
2019-06-21 14:00:00 19.1 20 Norte 33 Norte 0 -- -- 59
2019-06-21 13:00:00 20.1 18 Norte 33 Nordeste 0 -- -- 59
2019-06-21 12:00:00 -- -- -- -- -- -- -- -- --
2019-06-21 11:00:00 -- -- -- -- -- -- -- -- --
2019-06-21 10:00:00 -- -- -- -- -- -- -- -- --
2019-06-21 09:00:00 -- -- -- -- -- -- -- -- --
2019-06-21 08:00:00 -- -- -- -- -- -- -- -- --
2019-06-21 07:00:00 -- -- -- -- -- -- -- -- --
2019-06-21 06:00:00 -- -- -- -- -- -- -- -- --
2019-06-21 05:00:00 -- -- -- -- -- -- -- -- --
2019-06-21 04:00:00 -- -- -- -- -- -- -- -- --
2019-06-21 03:00:00 -- -- -- -- -- -- -- -- --
2019-06-21 02:00:00 -- -- -- -- -- -- -- -- --
2019-06-21 01:00:00 -- -- -- -- -- -- -- -- --
2019-06-21 00:00:00 -- -- -- -- -- -- -- -- --
2019-06-20 23:00:00 -- -- -- -- -- -- -- -- --
2019-06-20 22:00:00 -- -- -- -- -- -- -- -- --
2019-06-20 21:00:00 -- -- -- -- -- -- -- -- --
2019-06-20 20:00:00 -- -- -- -- -- -- -- -- --
2019-06-20 19:00:00 -- -- -- -- -- -- -- -- --
2019-06-20 18:00:00 -- -- -- -- -- -- -- -- --
2019-06-20 17:00:00 -- -- -- -- -- -- -- -- --
2019-06-20 16:00:00 21.9 22 Norte 33 Norte 0 -- -- 56
2019-06-20 15:00:00 21.9 16 Norte 33 Norte 0 -- -- 57
2019-06-20 14:00:00 21.7 19 Norte 33 Norte 0 -- -- 57
2019-06-20 13:00:00 21.8 21 Norte 33 Noroeste 0 -- -- 58
2019-06-20 12:00:00 21.3 20 Norte 30 Noroeste 0 -- -- 59
2019-06-20 11:00:00 19.9 17 Norte 30 Norte 0 -- -- 63
2019-06-20 10:00:00 18.5 21 Norte 36 Norte 0 -- -- 67
2019-06-20 09:00:00 17.9 19 Norte 35 Norte 0 -- -- 69
2019-06-20 08:00:00 17.2 10 Noroeste 15 Noroeste 0 -- -- 75
2019-06-20 07:00:00 15.1 9 Noroeste 15 Noroeste 0 -- -- 83
2019-06-20 06:00:00 15 10 Noroeste 23 Noroeste 0 -- -- 83
2019-06-20 05:00:00 16 15 Noroeste 22 Noroeste 0 -- -- 78
2019-06-20 04:00:00 15.1 12 Noroeste 22 Norte 0 -- -- 81
2019-06-20 03:00:00 15.6 13 Norte 22 Norte 0 -- -- 79
2019-06-20 02:00:00 16.1 18 Noroeste 28 Noroeste 0 -- -- 78
2019-06-20 01:00:00 17 15 Norte 26 Norte 0 -- -- 75
2019-06-20 00:00:00 17.8 14 Norte 30 Norte 0 -- -- 73
2019-06-19 23:00:00 18.4 20 Norte 44 Norte 0 -- -- 72
2019-06-19 22:00:00 19.9 22 Norte 39 Norte 0 -- -- 69
2019-06-19 21:00:00 23.7 19 Norte 33 Norte 0 -- -- 58
2019-06-19 20:00:00 26.7 24 Norte 35 Norte 0 -- -- 45
2019-06-19 19:00:00 28.4 10 Norte 21 Norte 0 -- -- 33
2019-06-19 18:00:00 27.8 8 Nordeste 18 Norte 0 -- -- 35
2019-06-19 17:00:00 28.2 10 Este 17 Este 0 -- -- 35
2019-06-19 16:00:00 27.4 11 Nordeste 23 Este 0 -- -- 37
2019-06-19 15:00:00 26.3 9 Norte -- -- -- -- -- 39
2019-06-19 14:00:00 25.4 7 Norte 21 Sudeste 0 -- -- 42
2019-06-19 13:00:00 25.6 5 Sudeste 18 Sur 0 -- -- 42
2019-06-19 12:00:00 24.9 5 Noroeste 23 Oeste 0 -- -- 44
2019-06-19 11:00:00 24.7 11 Oeste 19 Oeste 0 -- -- 46
2019-06-19 10:00:00 23.2 3 Sudeste 8 Sur 0 -- -- 49
2019-06-19 09:00:00 18.7 3 Noroeste 5 Noroeste 0 -- -- 60
2019-06-19 08:00:00 17.2 0 Calma 4 Noroeste 0 -- -- 68
2019-06-19 07:00:00 16.5 0 Calma -- -- -- -- -- 65
2019-06-19 06:00:00 -- -- -- -- -- -- -- -- --
2019-06-19 05:00:00 -- -- -- -- -- -- -- -- --
2019-06-19 04:00:00 -- -- -- -- -- -- -- -- --
2019-06-19 03:00:00 -- -- -- -- -- -- -- -- --
2019-06-19 02:00:00 -- -- -- -- -- -- -- -- --
2019-06-19 01:00:00 -- -- -- -- -- -- -- -- --
2019-06-19 00:00:00 -- -- -- -- -- -- -- -- --
2019-06-18 23:00:00 -- -- -- -- -- -- -- -- --
2019-06-18 22:00:00 -- -- -- -- -- -- -- -- --
2019-06-18 21:00:00 -- -- -- -- -- -- -- -- --
2019-06-18 20:00:00 -- -- -- -- -- -- -- -- --
2019-06-18 19:00:00 33.5 30 Sur 48 Sur 0 -- -- 13
2019-06-18 18:00:00 34.5 31 Sur 53 Sur 0 -- -- 14
2019-06-18 17:00:00 35.2 34 Sur 54 Sur 0 -- -- 15
2019-06-18 16:00:00 34.6 32 Sur 60 Sur 0 -- -- 16
2019-06-18 15:00:00 33.1 37 Sudeste 58 Sudeste 0 -- -- 22
2019-06-18 14:00:00 32.1 39 Sudeste 51 Sudeste 0 -- -- 25
2019-06-18 13:00:00 30.2 35 Sudeste 47 Sudeste 0 -- -- 27
2019-06-18 12:00:00 28.2 30 Sudeste 44 Sudeste 0 -- -- 30
2019-06-18 11:00:00 26.1 33 Sudeste 46 Sudeste 0 -- -- 33
2019-06-18 10:00:00 23.8 24 Sudeste 34 Sur 0 -- -- 38
2019-06-18 09:00:00 23.2 21 Sudeste 37 Sudeste 0 -- -- 38
2019-06-18 08:00:00 20.9 18 Sudeste 24 Sudeste 0 -- -- 42
2019-06-18 07:00:00 18.9 7 Sudeste 33 Sudeste 0 -- -- 49
2019-06-18 06:00:00 20.5 24 Sudeste 33 Sudeste 0 -- -- 46
2019-06-18 05:00:00 21.1 19 Sudeste 30 Sudeste 0 -- -- 49
2019-06-18 04:00:00 21.5 17 Sudeste 36 Sur 0 -- -- 50
2019-06-18 03:00:00 22.9 18 Sur 28 Sur 0 -- -- 47
2019-06-18 02:00:00 23.9 19 Sudeste 32 Este 0 -- -- 43
2019-06-18 01:00:00 23.3 13 Sudeste 29 Este 0 -- -- 42
2019-06-18 00:00:00 23.9 14 Este 23 Este 0 -- -- 38
2019-06-17 23:00:00 24.2 5 Nordeste 8 Nordeste 0 -- -- 41
2019-06-17 22:00:00 26.7 3 Noroeste 11 Este 0 -- -- 35
2019-06-17 21:00:00 27.7 10 Este 18 Este 0 -- -- 31
2019-06-17 20:00:00 30.2 12 Este 21 Este 0 -- -- 25
2019-06-17 19:00:00 32.4 17 Este 31 Sudeste 0 -- -- 21
2019-06-17 18:00:00 32.3 19 Este 30 Este 0 -- -- 21
2019-06-17 17:00:00 32.7 14 Sudeste 35 Sudeste 0 -- -- 21
2019-06-17 16:00:00 32.1 15 Este 32 Este 0 -- -- 22
2019-06-17 15:00:00 30.8 15 Sudeste 32 Sudeste 0 -- -- 26
2019-06-17 14:00:00 29.2 11 Sudeste 21 Sudeste 0 -- -- 31
2019-06-17 13:00:00 27.5 10 Este 31 Este 0 -- -- 36
2019-06-17 12:00:00 25.8 9 Sudeste 20 Sur 0 -- -- 41
2019-06-17 11:00:00 23.8 9 Sudeste 26 Sudeste 0 -- -- 48
2019-06-17 10:00:00 21.8 9 Sudeste 13 Sudeste 0 -- -- 51
2019-06-17 09:00:00 18 3 Noroeste 9 Norte 0 -- -- 70
2019-06-17 08:00:00 15.5 7 Norte 13 Noroeste 0 -- -- 82
2019-06-17 07:00:00 12.4 9 Noroeste 11 Noroeste 0 -- -- 83
2019-06-17 06:00:00 13.4 8 Noroeste 12 Noroeste 0 -- -- 82
2019-06-17 05:00:00 14.5 8 Noroeste 12 Norte 0 -- -- 80
2019-06-17 04:00:00 15.6 9 Noroeste 18 Noroeste 0 -- -- 78
2019-06-17 03:00:00 17.5 12 Noroeste 23 Norte 0 -- -- 71
2019-06-17 02:00:00 18.4 14 Noroeste 27 Norte 0 -- -- 68
2019-06-17 01:00:00 20.2 16 Norte 33 Norte 0 -- -- 60
2019-06-17 00:00:00 20.9 23 Norte 33 Norte 0 -- -- 58
2019-06-16 23:00:00 21.3 20 Norte 30 Norte 0 -- -- 59
2019-06-16 22:00:00 22.6 17 Norte 27 Norte 0 -- -- 55
2019-06-16 21:00:00 25.8 17 Norte 30 Norte 0 -- -- 42
2019-06-16 20:00:00 28.9 10 Nordeste 17 Norte 0 -- -- 23
2019-06-16 19:00:00 29.1 7 Nordeste 15 Noroeste 0 -- -- 22
2019-06-16 18:00:00 29.1 6 Nordeste 25 Sudeste 0 -- -- 23
2019-06-16 17:00:00 28.7 12 Este 28 Sudeste 0 -- -- 25
2019-06-16 16:00:00 28.3 13 Sudeste 30 Sudeste 0 -- -- 28
2019-06-16 15:00:00 27 15 Sudeste 28 Sudeste 0 -- -- 30
2019-06-16 14:00:00 26 16 Sudeste 31 Sur 0 -- -- 32
2019-06-16 13:00:00 23.8 14 Sudeste 24 Sudeste 0 -- -- 35
2019-06-16 12:00:00 21.8 14 Sudeste 22 Sudeste 0 -- -- 41
2019-06-16 11:00:00 19.4 10 Sudeste 23 Sudeste 0 -- -- 53
2019-06-16 10:00:00 16.8 7 Norte 16 Noroeste 0 -- -- 63
2019-06-16 09:00:00 13.8 9 Noroeste 15 Noroeste 0 -- -- 71
2019-06-16 08:00:00 11.1 9 Noroeste 18 Noroeste 0 -- -- 83
2019-06-16 07:00:00 8.7 12 Noroeste 17 Noroeste 0 -- -- 89
2019-06-16 06:00:00 8.5 9 Noroeste 15 Norte 0 -- -- 86
2019-06-16 05:00:00 9 8 Noroeste 12 Noroeste 0 -- -- 82
2019-06-16 04:00:00 10 12 Noroeste 18 Noroeste 0 -- -- 80
2019-06-16 03:00:00 10.4 9 Noroeste 15 Noroeste 0 -- -- 77
2019-06-16 02:00:00 11.5 8 Noroeste 16 Noroeste 0 -- -- 73
2019-06-16 01:00:00 11.8 10 Noroeste 25 Noroeste 0 -- -- 72
2019-06-16 00:00:00 14.6 17 Noroeste 27 Norte 0 -- -- 64
2019-06-15 23:00:00 15.3 17 Norte 28 Norte 0 -- -- 61
2019-06-15 22:00:00 16.4 15 Norte 37 Norte 0 -- -- 55
2019-06-15 21:00:00 18.6 21 Norte 45 Norte 0 -- -- 47
2019-06-15 20:00:00 19.8 28 Norte 43 Norte 0 -- -- 44
2019-06-15 19:00:00 21.1 27 Norte 44 Norte 0 -- -- 44
2019-06-15 18:00:00 22.1 26 Norte 42 Norte 0 -- -- 42
2019-06-15 17:00:00 22.6 23 Norte 41 Nordeste 0 -- -- 40
2019-06-15 16:00:00 23.6 17 Norte 36 Norte 0 -- -- 36
2019-06-15 15:00:00 22.7 15 Noroeste 39 Noroeste 0 -- -- 39
2019-06-15 14:00:00 21.5 16 Norte 27 Noroeste 0 -- -- 44
2019-06-15 13:00:00 20.5 12 Norte 24 Norte 0 -- -- 47
2019-06-15 12:00:00 19.2 8 Norte 23 Noroeste 0 -- -- 51
2019-06-15 11:00:00 17.7 10 Noroeste 24 Oeste 0 -- -- 54
2019-06-15 10:00:00 15.9 11 Oeste 19 Noroeste 0 -- -- 57
2019-06-15 09:00:00 14.6 9 Noroeste 25 Oeste 0 -- -- 64
2019-06-15 08:00:00 12.7 10 Noroeste 14 Noroeste 0 -- -- 75
2019-06-15 07:00:00 11.7 5 Noroeste 15 Noroeste 0 -- -- 83
2019-06-15 06:00:00 11.6 12 Noroeste 23 Oeste 0 -- -- 84
2019-06-15 05:00:00 12.1 19 Oeste 24 Noroeste 0 -- -- 81
2019-06-15 04:00:00 11.9 15 Oeste 23 Noroeste 0 -- -- 82
2019-06-15 03:00:00 13.1 15 Noroeste 26 Noroeste 0 -- -- 76
2019-06-15 02:00:00 14.5 21 Noroeste 31 Noroeste 0 -- -- 72
2019-06-15 01:00:00 14.7 20 Noroeste 28 Norte 0 -- -- 74
2019-06-15 00:00:00 14.6 16 Noroeste 30 Norte 0 -- -- 75
2019-06-14 23:00:00 14.7 24 Norte 34 Norte 0 -- -- 75
2019-06-14 22:00:00 15.1 17 Norte 41 Norte 0 -- -- 75
2019-06-14 21:00:00 15.9 28 Norte 46 Norte 0 -- -- 73
2019-06-14 20:00:00 18.2 29 Norte 39 Norte 0 -- -- 66
2019-06-14 19:00:00 23.3 25 Norte 36 Norte 0 -- -- 52
2019-06-14 18:00:00 25.4 21 Norte 30 Noroeste 0 -- -- 46
2019-06-14 17:00:00 26.4 12 Sudeste 21 Sudeste 0 -- -- 38
2019-06-14 16:00:00 25.5 13 Este 24 Sudeste 0 -- -- 41
2019-06-14 15:00:00 24.6 7 Este 20 Este 0 -- -- 41
2019-06-14 14:00:00 22.5 8 Nordeste 19 Nordeste 0 -- -- 45
2019-06-14 13:00:00 21 8 Norte 17 Nordeste 0 -- -- 48
2019-06-14 12:00:00 18.5 8 Norte 20 Norte 0 -- -- 59
2019-06-14 11:00:00 16.2 12 Norte 21 Noroeste 0 -- -- 69
2019-06-14 10:00:00 14.3 11 Norte 19 Norte 0 -- -- 75
2019-06-14 09:00:00 12.6 7 Noroeste 14 Norte 0 -- -- 82
2019-06-14 08:00:00 11 8 Noroeste 17 Noroeste 0 -- -- 87
2019-06-14 07:00:00 10.3 10 Noroeste 22 Norte 0 -- -- 88
2019-06-14 06:00:00 11.2 13 Noroeste 21 Norte 0 -- -- 86
2019-06-14 05:00:00 11.6 10 Noroeste 19 Norte 0 -- -- 84
2019-06-14 04:00:00 12.1 16 Noroeste 32 Norte 0 -- -- 82
2019-06-14 03:00:00 12.8 15 Noroeste 31 Norte 0 -- -- 80
2019-06-14 02:00:00 13.5 22 Norte 33 Noroeste 0 -- -- 77
2019-06-14 01:00:00 14 24 Norte 37 Norte 0 -- -- 76
2019-06-14 00:00:00 14.4 22 Norte 37 Norte 0 -- -- 75
2019-06-13 23:00:00 15.2 25 Norte 44 Norte 0 -- -- 73
2019-06-13 22:00:00 17.9 21 Norte 42 Sudeste 0 -- -- 64
2019-06-13 21:00:00 24.1 32 Sudeste 58 Sudeste 0 -- -- 42
2019-06-13 20:00:00 25.5 43 Sudeste 57 Sudeste 0 -- -- 39
2019-06-13 19:00:00 26.2 38 Sudeste 57 Sudeste 0 -- -- 40
2019-06-13 18:00:00 27.3 40 Sudeste 62 Sudeste 0 -- -- 39
2019-06-13 17:00:00 26.2 39 Sudeste 61 Sudeste 0 -- -- 41
2019-06-13 16:00:00 26.2 38 Sudeste 58 Sudeste 0 -- -- 40
2019-06-13 15:00:00 25.9 36 Sudeste 52 Sudeste 0 -- -- 41
2019-06-13 14:00:00 23.9 32 Sudeste 49 Sudeste 0 -- -- 44
2019-06-13 13:00:00 23.1 32 Sudeste 49 Sudeste 0 -- -- 44
2019-06-13 12:00:00 21.3 31 Sudeste 49 Sudeste 0 -- -- 46
2019-06-13 11:00:00 19.4 35 Sudeste 60 Sudeste 0 -- -- 47
2019-06-13 10:00:00 17.4 33 Sudeste 48 Sudeste 0 -- -- 49
2019-06-13 09:00:00 15 18 Sudeste 29 Sudeste 0 -- -- 55
2019-06-13 08:00:00 9.6 4 Noroeste 12 Este 0 -- -- 84
2019-06-13 07:00:00 7.9 8 Noroeste 14 Noroeste 0 -- -- 87
2019-06-13 06:00:00 7.8 8 Noroeste 15 Noroeste 0 -- -- 85
2019-06-13 05:00:00 9.3 8 Noroeste 17 Norte 0 -- -- 81
2019-06-13 04:00:00 9.2 11 Noroeste 18 Norte 0 -- -- 83
2019-06-13 03:00:00 10.8 12 Norte 24 Noroeste 0 -- -- 77
2019-06-13 02:00:00 11 13 Norte 30 Norte 0 -- -- 75
2019-06-13 01:00:00 11.7 23 Norte 36 Norte 0 -- -- 73
2019-06-13 00:00:00 12 24 Norte 35 Norte 0 -- -- 72
2019-06-12 23:00:00 12.5 23 Norte 42 Norte 0 -- -- 71
2019-06-12 22:00:00 13.7 24 Norte 51 Norte 0 -- -- 68
2019-06-12 21:00:00 16.6 23 Norte 45 Norte 0 -- -- 58
2019-06-12 20:00:00 19.1 20 Norte 32 Norte 0 -- -- 48
2019-06-12 19:00:00 22.1 5 Sur 16 Nordeste 0 -- -- 31
2019-06-12 18:00:00 21.4 10 Nordeste 20 Este 0 -- -- 33
2019-06-12 17:00:00 22 6 Este 27 Sur 0 -- -- 34
2019-06-12 16:00:00 21.1 10 Sur 23 Sudeste 0 -- -- 35
2019-06-12 15:00:00 20 13 Sudeste 31 Sudeste 0 -- -- 37
2019-06-12 14:00:00 19.1 9 Sudeste 27 Este 0 -- -- 39
2019-06-12 13:00:00 17.4 6 Este 22 Este 0 -- -- 43
2019-06-12 12:00:00 16.2 14 Este 22 Este 0 -- -- 47
2019-06-12 11:00:00 14.5 7 Este 19 Nordeste 0 -- -- 53
2019-06-12 10:00:00 12.4 3 Sudeste 9 Sudeste 0 -- -- 64
2019-06-12 09:00:00 9.9 3 Sudeste 7 Noroeste 0 -- -- 76
2019-06-12 08:00:00 6.5 2 Nordeste 8 Norte 0 -- -- 91
2019-06-12 07:00:00 4.4 4 Noroeste 9 Norte 0 -- -- 93
2019-06-12 06:00:00 4.8 6 Norte 8 Norte 0 -- -- 91
2019-06-12 05:00:00 4.8 4 Noroeste 8 Noroeste 0 -- -- 89
2019-06-12 04:00:00 5.9 4 Noroeste 6 Noroeste 0 -- -- 87
2019-06-12 03:00:00 6.5 2 Sur 7 Sudoeste 0 -- -- 86
2019-06-12 02:00:00 7.8 6 Oeste 12 Sudoeste 0 -- -- 80
2019-06-12 01:00:00 8.5 2 Noroeste 13 Noroeste 0 -- -- 77
2019-06-12 00:00:00 9.2 10 Oeste 20 Oeste 0 -- -- 75
2019-06-11 23:00:00 10.8 17 Oeste 28 Noroeste 0 -- -- 70
2019-06-11 22:00:00 11 14 Noroeste 31 Noroeste 0 -- -- 70
2019-06-11 21:00:00 13.3 18 Noroeste 38 Noroeste 0 -- -- 61
2019-06-11 20:00:00 13.6 28 Noroeste 40 Noroeste 0 -- -- 59
2019-06-11 19:00:00 15.5 22 Noroeste 47 Noroeste 0 -- -- 54
2019-06-11 18:00:00 16.8 27 Noroeste 47 Noroeste 0 -- -- 47
2019-06-11 17:00:00 16.3 22 Noroeste 41 Noroeste 0 -- -- 48
2019-06-11 16:00:00 17.6 28 Noroeste 49 Noroeste 0 -- -- 44
2019-06-11 15:00:00 16 32 Noroeste 48 Noroeste 0 -- -- 49
2019-06-11 14:00:00 14.3 35 Noroeste 51 Noroeste 0 -- -- 55
2019-06-11 13:00:00 14.5 34 Noroeste 46 Noroeste 0 -- -- 58
2019-06-11 12:00:00 13.8 26 Noroeste 35 Noroeste 0 -- -- 59
2019-06-11 11:00:00 14 22 Noroeste 33 Noroeste 0 -- -- 61
2019-06-11 10:00:00 11.7 19 Noroeste 29 Noroeste 0 -- -- 74
2019-06-11 09:00:00 11.3 13 Oeste 18 Noroeste 0 -- -- 82
2019-06-11 08:00:00 9.8 7 Oeste 13 Oeste 0 -- -- 93
2019-06-11 07:00:00 9.5 5 Oeste 12 Oeste 0.2 -- -- 93
2019-06-11 06:00:00 9.5 5 Oeste 9 Oeste 0.6 -- -- 93
2019-06-11 05:00:00 9.4 7 Oeste 15 Oeste 0.2 -- -- 92
2019-06-11 04:00:00 9.3 9 Oeste 19 Oeste 0.8 -- -- 90
2019-06-11 03:00:00 9.8 5 Oeste 15 Noroeste 0.6 -- -- 87
2019-06-11 02:00:00 11.4 9 Oeste 17 Noroeste 0 -- -- 70
2019-06-11 01:00:00 11.5 10 Noroeste 18 Norte 0 -- -- 71
2019-06-11 00:00:00 11.8 11 Norte 23 Norte 0 -- -- 68
2019-06-10 23:00:00 11.7 10 Norte 22 Norte 0 -- -- 74
2019-06-10 22:00:00 12.8 16 Norte 30 Norte 0 -- -- 62
2019-06-10 21:00:00 13.9 19 Norte 41 Norte 0 -- -- 57
2019-06-10 20:00:00 14.9 21 Norte 41 Noroeste 0 -- -- 54
2019-06-10 19:00:00 16.6 34 Noroeste 65 Noroeste 0 -- -- 48
2019-06-10 18:00:00 17.5 25 Norte 42 Norte 0 -- -- 49
2019-06-10 17:00:00 18.9 25 Norte 45 Noroeste 0 -- -- 46
2019-06-10 16:00:00 18.3 21 Norte 40 Noroeste 0 -- -- 48
2019-06-10 15:00:00 17.9 26 Noroeste 37 Oeste 0 -- -- 48
2019-06-10 14:00:00 17.3 22 Noroeste 34 Noroeste 0 -- -- 51
2019-06-10 13:00:00 16.6 21 Noroeste 37 Noroeste 0 -- -- 53
2019-06-10 12:00:00 15.6 28 Oeste 36 Noroeste 0 -- -- 55
2019-06-10 11:00:00 14.3 29 Noroeste 39 Oeste 0 -- -- 61
2019-06-10 10:00:00 13.9 24 Noroeste 34 Oeste 0 -- -- 64
2019-06-10 09:00:00 12.9 25 Oeste 36 Oeste 0 -- -- 69
2019-06-10 08:00:00 12.3 22 Noroeste 28 Oeste 0 -- -- 73
2019-06-10 07:00:00 12.1 9 Noroeste 24 Noroeste 0 -- -- 77
2019-06-10 06:00:00 12 17 Noroeste 23 Noroeste 0 -- -- 77
2019-06-10 05:00:00 11 13 Oeste 17 Noroeste 0 -- -- 81
2019-06-10 04:00:00 11.6 6 Noroeste 10 Noroeste 0 -- -- 81
2019-06-10 03:00:00 11.8 6 Norte 23 Noroeste 0 -- -- 81
2019-06-10 02:00:00 12 13 Noroeste 21 Norte 0 -- -- 80
2019-06-10 01:00:00 13.3 18 Norte 34 Noroeste 0 -- -- 76
2019-06-10 00:00:00 14 24 Noroeste 37 Noroeste 0 -- -- 73
2019-06-09 23:00:00 14.3 21 Norte 37 Noroeste 0 -- -- 75
2019-06-09 22:00:00 14.7 20 Norte 40 Norte 0 -- -- 74
2019-06-09 21:00:00 15.4 30 Norte 56 Norte 0 -- -- 73
2019-06-09 20:00:00 17 30 Norte 52 Norte 0 -- -- 68
2019-06-09 19:00:00 18.8 33 Norte 51 Norte 0 -- -- 62
2019-06-09 18:00:00 20.2 30 Norte 43 Norte 0 -- -- 60
2019-06-09 17:00:00 25 24 Norte 37 Norte 0 -- -- 48
2019-06-09 16:00:00 26.3 7 Noroeste 22 Norte 0 -- -- 32
2019-06-09 15:00:00 25.3 9 Noroeste 16 Sudeste 0 -- -- 34
2019-06-09 14:00:00 24.9 7 Sudeste 22 Sudeste 0 -- -- 35
2019-06-09 13:00:00 23.6 11 Sudeste 23 Sudeste 0 -- -- 37
2019-06-09 12:00:00 21.8 7 Este 18 Este 0 -- -- 40
2019-06-09 11:00:00 20.2 4 Este 15 Sudeste 0 -- -- 42
2019-06-09 10:00:00 18.2 4 Norte 9 Norte 0 -- -- 51
2019-06-09 09:00:00 14.8 6 Norte 10 Noroeste 0 -- -- 76
2019-06-09 08:00:00 13.3 9 Noroeste 12 Noroeste 0 -- -- 86
2019-06-09 07:00:00 12.4 6 Noroeste 9 Norte 0 -- -- 87
2019-06-09 06:00:00 12.9 7 Noroeste 11 Nordeste 0 -- -- 86
2019-06-09 05:00:00 13.5 5 Nordeste 13 Norte 0 -- -- 81
2019-06-09 04:00:00 13.7 5 Norte 13 Noroeste 0 -- -- 78
2019-06-09 03:00:00 14.8 5 Norte 13 Noroeste 0 -- -- 73
2019-06-09 02:00:00 14.1 14 Noroeste 20 Noroeste 0 -- -- 79
2019-06-09 01:00:00 15.5 10 Norte 27 Noroeste 0 -- -- 72
2019-06-09 00:00:00 16.6 11 Nordeste 26 Norte 0 -- -- 68
2019-06-08 23:00:00 17.3 17 Norte 34 Norte 0 -- -- 64
2019-06-08 22:00:00 17.9 23 Norte 35 Norte 0 -- -- 62
2019-06-08 21:00:00 19.7 20 Norte 31 Norte 0 -- -- 55
2019-06-08 20:00:00 23.6 11 Este 28 Sudeste 0 -- -- 39
2019-06-08 19:00:00 24.2 20 Sudeste 28 Este 0 -- -- 36
2019-06-08 18:00:00 24.2 19 Este 31 Sudeste 0 -- -- 33
2019-06-08 17:00:00 24.9 18 Este 28 Sudeste 0 -- -- 32
2019-06-08 16:00:00 23.7 17 Sudeste 31 Sudeste 0 -- -- 33
2019-06-08 15:00:00 23.2 19 Sudeste 32 Sudeste 0 -- -- 31
2019-06-08 14:00:00 22.2 13 Sudeste 35 Sudeste 0 -- -- 35
2019-06-08 13:00:00 21 12 Sudeste 26 Sudeste 0 -- -- 37
2019-06-08 12:00:00 19 5 Nordeste 19 Nordeste 0 -- -- 41
2019-06-08 11:00:00 16.8 9 Norte 21 Norte 0 -- -- 46
2019-06-08 10:00:00 14.8 14 Noroeste 23 Norte 0 -- -- 58
2019-06-08 09:00:00 12 8 Noroeste 14 Noroeste 0 -- -- 69
2019-06-08 08:00:00 8.9 7 Noroeste 9 Noroeste 0 -- -- 85
2019-06-08 07:00:00 6.4 6 Noroeste 9 Noroeste 0 -- -- 87
2019-06-08 06:00:00 6.8 7 Noroeste 12 Noroeste 0 -- -- 86
2019-06-08 05:00:00 6.8 9 Noroeste 14 Noroeste 0 -- -- 85
2019-06-08 04:00:00 7.5 3 Noroeste 13 Noroeste 0 -- -- 82
2019-06-08 03:00:00 8 12 Noroeste 16 Noroeste 0 -- -- 80
2019-06-08 02:00:00 8.8 10 Noroeste 14 Norte 0 -- -- 77
2019-06-08 01:00:00 10.3 5 Norte 20 Norte 0 -- -- 71
2019-06-08 00:00:00 10.9 13 Norte 36 Norte 0 -- -- 69
2019-06-07 23:00:00 12 24 Norte 42 Norte 0 -- -- 65
2019-06-07 22:00:00 12.9 27 Norte 42 Norte 0 -- -- 63
2019-06-07 21:00:00 14.7 28 Norte 40 Norte 0 -- -- 55
2019-06-07 20:00:00 16.7 27 Norte 44 Norte 0 -- -- 51
2019-06-07 19:00:00 19.4 26 Norte 38 Norte 0 -- -- 45
2019-06-07 18:00:00 21.6 21 Oeste 42 Oeste 0 -- -- 27
2019-06-07 17:00:00 21.5 22 Noroeste 35 Oeste 0 -- -- 30
2019-06-07 16:00:00 20.8 17 Oeste 37 Oeste 0 -- -- 31
2019-06-07 15:00:00 20.6 18 Oeste 41 Oeste 0 -- -- 33
2019-06-07 14:00:00 19.6 26 Oeste 44 Oeste 0 -- -- 36
2019-06-07 13:00:00 19 21 Oeste 44 Oeste 0 -- -- 41
2019-06-07 12:00:00 17.7 17 Oeste 36 Oeste 0 -- -- 43
2019-06-07 11:00:00 16.2 6 Sudoeste 19 Noroeste 0 -- -- 48
2019-06-07 10:00:00 14.1 5 Oeste 20 Oeste 0 -- -- 54
2019-06-07 09:00:00 13.8 7 Oeste 14 Sudoeste 0 -- -- 56
2019-06-07 08:00:00 11.9 8 Oeste 14 Oeste 0 -- -- 67
2019-06-07 07:00:00 10 5 Sur 13 Oeste 0 -- -- 83
2019-06-07 06:00:00 11 9 Oeste 26 Oeste 0 -- -- 81
2019-06-07 05:00:00 11.7 17 Oeste 66 Oeste 0 -- -- 75
2019-06-07 04:00:00 14 26 Oeste 41 Oeste 0 -- -- 60
2019-06-07 03:00:00 16.4 13 Sur 60 Sudeste 0 -- -- 68
2019-06-07 02:00:00 16.3 38 Sudeste 66 Sudeste 0 -- -- 68
2019-06-07 01:00:00 17 44 Sudeste 63 Sudeste 0 -- -- 63
2019-06-07 00:00:00 17.6 33 Sudeste 51 Sudeste 0 -- -- 60
2019-06-06 23:00:00 18.6 35 Sudeste 77 Sudeste 0 -- -- 54
2019-06-06 22:00:00 19.7 46 Sudeste 63 Sudeste 0 -- -- 51
2019-06-06 21:00:00 21.6 40 Sudeste 55 Sudeste 0 -- -- 48
2019-06-06 20:00:00 24.5 41 Sur 54 Sur 0 -- -- 29
2019-06-06 19:00:00 24.5 45 Sudeste 67 Sur 0 -- -- 32
2019-06-06 18:00:00 25.1 36 Sudeste 60 Sur 0 -- -- 33
2019-06-06 17:00:00 23.8 35 Sudeste 59 Sudeste 0 -- -- 33
2019-06-06 16:00:00 24.2 31 Sudeste 52 Sudeste 0 -- -- 35
2019-06-06 15:00:00 22.7 32 Sudeste 52 Sudeste 0 -- -- 40
2019-06-06 14:00:00 20.8 36 Sudeste 48 Sudeste 0 -- -- 46
2019-06-06 13:00:00 19.6 30 Sudeste 40 Sudeste 0 -- -- 49
2019-06-06 12:00:00 18.1 25 Sudeste 39 Sudeste 0 -- -- 53
2019-06-06 11:00:00 15.8 14 Sudeste 23 Sudeste 0 -- -- 61
2019-06-06 10:00:00 13 4 Este 10 Norte 0 -- -- 70
2019-06-06 09:00:00 10.8 6 Norte 11 Norte 0 -- -- 83
2019-06-06 08:00:00 9.6 3 Noroeste 5 Noroeste 0 -- -- 90
2019-06-06 07:00:00 9 4 Noroeste 8 Noroeste 0 -- -- 89
2019-06-06 06:00:00 8.8 4 Noroeste 7 Noroeste 0 -- -- 92
2019-06-06 05:00:00 8.7 2 Norte 8 Noroeste 0 -- -- 91
2019-06-06 04:00:00 8.9 5 Noroeste 8 Noroeste 0 -- -- 89
2019-06-06 03:00:00 9.5 3 Noroeste 12 Noroeste 0 -- -- 84
2019-06-06 02:00:00 10.1 6 Noroeste 15 Norte 0 -- -- 81
2019-06-06 01:00:00 11.4 11 Norte 26 Norte 0 -- -- 75
2019-06-06 00:00:00 11.6 16 Noroeste 23 Norte 0 -- -- 73
2019-06-05 23:00:00 11.9 14 Norte 24 Norte 0 -- -- 71
2019-06-05 22:00:00 12.4 16 Norte 27 Norte 0 -- -- 69
2019-06-05 21:00:00 13.1 20 Norte 29 Norte 0 -- -- 70
2019-06-05 20:00:00 15 21 Norte 32 Norte 0 -- -- 57
2019-06-05 19:00:00 15.2 22 Noroeste 33 Noroeste 0 -- -- 59
2019-06-05 18:00:00 15.9 24 Noroeste 41 Noroeste 0 -- -- 58
2019-06-05 17:00:00 16.1 24 Norte 37 Noroeste 0 -- -- 61
2019-06-05 16:00:00 17.2 20 Noroeste 40 Noroeste 0 -- -- 57
2019-06-05 15:00:00 15.6 24 Noroeste 37 Noroeste 0 -- -- 66
2019-06-05 14:00:00 14.1 15 Noroeste 30 Oeste 0 -- -- 76
2019-06-05 13:00:00 13 19 Oeste 33 Noroeste 0 -- -- 78
2019-06-05 12:00:00 13 18 Oeste 28 Oeste 0.4 -- -- 76
2019-06-05 11:00:00 11.8 16 Noroeste 31 Noroeste 0 -- -- 81
2019-06-05 10:00:00 11 22 Noroeste 32 Oeste 0.8 -- -- 85
2019-06-05 09:00:00 10.7 17 Noroeste 31 Noroeste 4.6 -- -- 93
2019-06-05 08:00:00 11.1 15 Oeste 28 Noroeste 0.2 -- -- 92
2019-06-05 07:00:00 11.2 13 Noroeste 21 Noroeste 0 -- -- 94
2019-06-05 06:00:00 10.8 15 Noroeste 24 Noroeste 3.4 -- -- 93
2019-06-05 05:00:00 10.7 17 Noroeste 26 Noroeste 5.8 -- -- 91
2019-06-05 04:00:00 12 18 Norte 29 Norte 0.4 -- -- 80
2019-06-05 03:00:00 12.7 13 Noroeste 22 Noroeste 0 -- -- 73
2019-06-05 02:00:00 13 11 Noroeste 18 Norte 0 -- -- 74
2019-06-05 01:00:00 13.1 12 Norte 28 Norte 0 -- -- 74
2019-06-05 00:00:00 12.8 11 Noroeste 25 Norte 0 -- -- 75
2019-06-04 23:00:00 13.9 15 Norte 34 Noroeste 0 -- -- 72
2019-06-04 22:00:00 15.2 18 Noroeste 48 Norte 0 -- -- 72
2019-06-04 21:00:00 16.7 31 Norte 57 Norte 0 -- -- 73
2019-06-04 20:00:00 17.5 37 Norte 58 Norte 0 -- -- 69
2019-06-04 19:00:00 19.6 38 Norte 54 Norte 0 -- -- 65
2019-06-04 18:00:00 20.9 39 Norte 58 Norte 0 -- -- 65
2019-06-04 17:00:00 31.2 9 Sudoeste 48 Oeste 0 -- -- 29
2019-06-04 16:00:00 32.2 9 Sudoeste 37 Sur 0 -- -- 28
2019-06-04 15:00:00 33.2 17 Sur 45 Sudeste 0 -- -- 26
2019-06-04 14:00:00 30.5 29 Sudeste 43 Sudeste 0 -- -- 30
2019-06-04 13:00:00 28.6 22 Sudeste 37 Sudeste 0 -- -- 33
2019-06-04 12:00:00 26.4 24 Sudeste 43 Sudeste 0 -- -- 35
2019-06-04 11:00:00 24.1 27 Sudeste 40 Sudeste 0 -- -- 40
2019-06-04 10:00:00 21.5 13 Sur 25 Sur 0 -- -- 45
2019-06-04 09:00:00 19.2 12 Sur 21 Sur 0 -- -- 49
2019-06-04 08:00:00 16.7 8 Sur 13 Sur 0 -- -- 57
2019-06-04 07:00:00 15.2 0 Calma 13 Sur 0 -- -- 60
2019-06-04 06:00:00 15.5 3 Sudoeste 9 Sur 0 -- -- 59
2019-06-04 05:00:00 16.6 8 Sudeste 19 Sudeste 0 -- -- 55
2019-06-04 04:00:00 17.1 12 Sudeste 18 Sudeste 0 -- -- 55
2019-06-04 03:00:00 17.8 9 Sur 17 Sudeste 0 -- -- 57
2019-06-04 02:00:00 19.5 13 Sudeste 26 Sudeste 0 -- -- 55
2019-06-04 01:00:00 22.2 18 Sudeste 29 Sudeste 0 -- -- 46
2019-06-04 00:00:00 21.9 10 Sudeste 15 Sudeste 0 -- -- 50
2019-06-03 23:00:00 24 11 Sudeste 23 Sudeste 0 -- -- 45
2019-06-03 22:00:00 24.6 16 Sudeste 20 Sudeste 0 -- -- 45
2019-06-03 21:00:00 28 10 Sudeste 20 Sudeste 0 -- -- 40
2019-06-03 20:00:00 30.4 14 Sur 18 Sur 0 -- -- 34
2019-06-03 19:00:00 31 11 Sudeste 18 Sudeste 0 -- -- 30
2019-06-03 18:00:00 30.8 8 Sudeste 22 Sudeste 0 -- -- 30
2019-06-03 17:00:00 30.8 11 Sudeste 28 Sudeste 0 -- -- 30
2019-06-03 16:00:00 30 8 Sudeste 24 Sudeste 0 -- -- 30
2019-06-03 15:00:00 28.6 11 Sudeste 26 Este 0 -- -- 30
2019-06-03 14:00:00 26.6 8 Sudeste 24 Sudeste 0 -- -- 33
2019-06-03 13:00:00 25.5 10 Sudeste 26 Sudeste 0 -- -- 35
2019-06-03 12:00:00 23.8 4 Noroeste 12 Sur 0 -- -- 39
2019-06-03 11:00:00 22.7 6 Sur 21 Sudeste 0 -- -- 43
2019-06-03 10:00:00 21.4 6 Sudeste 14 Sudeste 0 -- -- 50
2019-06-03 09:00:00 16.7 4 Noroeste 11 Norte 0 -- -- 69
2019-06-03 08:00:00 15.7 9 Noroeste 15 Nordeste 0 -- -- 70
2019-06-03 07:00:00 16.2 8 Norte 16 Noroeste 0 -- -- 65
2019-06-03 06:00:00 15.8 12 Noroeste 17 Noroeste 0 -- -- 66
2019-06-03 05:00:00 15.8 11 Noroeste 15 Norte 0 -- -- 69
2019-06-03 04:00:00 17.7 13 Norte 31 Norte 0 -- -- 55
2019-06-03 03:00:00 18 13 Norte 26 Norte 0 -- -- 56
2019-06-03 02:00:00 19.1 18 Noroeste 28 Norte 0 -- -- 54
2019-06-03 01:00:00 19.6 10 Norte 35 Norte 0 -- -- 55
2019-06-03 00:00:00 20.1 19 Norte 36 Norte 0.2 -- -- 54
2019-06-02 23:00:00 21.8 21 Norte 40 Norte 0 -- -- 53
2019-06-02 22:00:00 23.1 24 Norte 37 Norte 0 -- -- 55
2019-06-02 21:00:00 27.4 15 Norte 22 Norte 0 -- -- 47
2019-06-02 20:00:00 29.8 5 Este 14 Este 0 -- -- 34
2019-06-02 19:00:00 31 11 Este 18 Este 0 -- -- 32
2019-06-02 18:00:00 31.2 9 Este 16 Este 0 -- -- 30
2019-06-02 17:00:00 31.5 8 Este 20 Este 0 -- -- 30
2019-06-02 16:00:00 31.5 12 Sudeste 24 Sudeste 0 -- -- 31
2019-06-02 15:00:00 30.5 13 Sudeste 25 Sur 0 -- -- 33
2019-06-02 14:00:00 29.7 10 Sudeste 27 Sudeste 0 -- -- 33
2019-06-02 13:00:00 28.5 18 Sudeste 27 Sudeste 0 -- -- 34
2019-06-02 12:00:00 26.5 13 Sudeste 26 Sudeste 0 -- -- 38
2019-06-02 11:00:00 24.8 19 Sudeste 30 Sudeste 0 -- -- 40
2019-06-02 10:00:00 21.5 8 Este 12 Este 0 -- -- 52
2019-06-02 09:00:00 18.6 3 Nordeste 8 Norte 0 -- -- 58
2019-06-02 08:00:00 15 5 Norte 9 Noroeste 0 -- -- 76
2019-06-02 07:00:00 12.6 5 Noroeste 8 Noroeste 0 -- -- 81
2019-06-02 06:00:00 13.1 4 Norte 10 Sudeste 0 -- -- 77
2019-06-02 05:00:00 14 3 Norte 8 Noroeste 0 -- -- 73
2019-06-02 04:00:00 14.6 3 Noroeste 8 Noroeste 0 -- -- 70
2019-06-02 03:00:00 15.7 2 Norte 9 Noroeste 0 -- -- 66
2019-06-02 02:00:00 15.9 8 Norte 10 Noroeste 0 -- -- 66
2019-06-02 01:00:00 16.7 5 Noroeste 10 Noroeste 0 -- -- 64
2019-06-02 00:00:00 17.8 5 Norte 13 Norte 0 -- -- 62
2019-06-01 23:00:00 20.4 7 Norte 12 Norte 0 -- -- 55
2019-06-01 22:00:00 26.1 4 Este 8 Sudeste 0 -- -- 33
2019-06-01 21:00:00 28.2 9 Este 10 Este 0 -- -- 30
2019-06-01 20:00:00 30.4 5 Este 12 Sudeste 0 -- -- 27
2019-06-01 19:00:00 31.1 2 Oeste 17 Este 0 -- -- 25
2019-06-01 18:00:00 30.9 10 Sudeste 19 Sudeste 0 -- -- 26
2019-06-01 17:00:00 30.5 10 Este 23 Sudeste 0 -- -- 29
2019-06-01 16:00:00 29.9 12 Sudeste 24 Sudeste 0 -- -- 31
2019-06-01 15:00:00 28.8 14 Sudeste 26 Sudeste 0 -- -- 35
2019-06-01 14:00:00 27.5 12 Sudeste 26 Sudeste 0 -- -- 39
2019-06-01 13:00:00 26.4 15 Sudeste 32 Sudeste 0 -- -- 43
2019-06-01 12:00:00 24.9 15 Sudeste 27 Sudeste 0 -- -- 44
2019-06-01 11:00:00 22.8 19 Sudeste 27 Sudeste 0 -- -- 49
2019-06-01 10:00:00 19.9 7 Sudeste 11 Sudeste 0 -- -- 60
2019-06-01 09:00:00 16.8 4 Noroeste 8 Norte 0 -- -- 75
2019-06-01 08:00:00 13.7 3 Noroeste 11 Noroeste 0 -- -- 87
2019-06-01 07:00:00 11.4 8 Norte 12 Noroeste 0 -- -- 90
2019-06-01 06:00:00 12.3 3 Norte 12 Norte 0 -- -- 87
2019-06-01 05:00:00 12.4 5 Norte 9 Norte 0 -- -- 88
2019-06-01 04:00:00 13.2 6 Norte 9 Noroeste 0 -- -- 87
2019-06-01 03:00:00 14.8 3 Noroeste 7 Norte 0 -- -- 82
2019-06-01 02:00:00 16 8 Norte 14 Noroeste 0 -- -- 79
2019-06-01 01:00:00 16.2 8 Noroeste 11 Noroeste 0 -- -- 78
2019-06-01 00:00:00 19.2 8 Oeste 16 Norte 0 -- -- 66
2019-05-31 23:00:00 21.7 11 Nordeste 20 Nordeste 0 -- -- 57
2019-05-31 22:00:00 23.1 12 Norte 22 Norte 0 -- -- 55
2019-05-31 21:00:00 26.2 11 Norte 21 Norte 0 -- -- 49
2019-05-31 20:00:00 28.5 9 Nordeste 14 Este 0 -- -- 31
2019-05-31 19:00:00 29.1 10 Nordeste 18 Nordeste 0 -- -- 28
2019-05-31 18:00:00 29.1 8 Nordeste 16 Nordeste 0 -- -- 28
2019-05-31 17:00:00 28.5 5 Nordeste 17 Norte 0 -- -- 27
2019-05-31 16:00:00 27.7 5 Norte 16 Este 0 -- -- 34
2019-05-31 15:00:00 26.6 5 Sur 17 Sudeste 0 -- -- 36
2019-05-31 14:00:00 25.2 8 Sur 17 Sudeste 0 -- -- 42
2019-05-31 13:00:00 23.8 9 Sudeste 21 Sur 0 -- -- 47
2019-05-31 12:00:00 22.8 13 Sudeste 22 Sudeste 0 -- -- 49
2019-05-31 11:00:00 21.2 8 Sur 14 Sudeste 0 -- -- 57
2019-05-31 10:00:00 19.2 3 Sudeste 9 Sudeste 0 -- -- 64
2019-05-31 09:00:00 16.3 2 Sudeste 9 Norte 0 -- -- 76
2019-05-31 08:00:00 11.9 6 Noroeste 11 Noroeste 0 -- -- 87
2019-05-31 07:00:00 11 5 Noroeste 8 Noroeste 0 -- -- 87
2019-05-31 06:00:00 11.9 4 Norte 6 Noroeste 0 -- -- 84
2019-05-31 05:00:00 13.1 3 Oeste 13 Noroeste 0 -- -- 79
2019-05-31 04:00:00 13.6 5 Noroeste 14 Noroeste 0 -- -- 77
2019-05-31 03:00:00 15.1 10 Norte 15 Norte 0 -- -- 76
2019-05-31 02:00:00 14.2 12 Noroeste 15 Noroeste 0 -- -- 77
2019-05-31 01:00:00 16.3 5 Oeste 31 Norte 0 -- -- 69
2019-05-31 00:00:00 18.3 23 Norte 36 Norte 0 -- -- 66
2019-05-30 23:00:00 18.6 26 Norte 34 Norte 0 -- -- 65
2019-05-30 22:00:00 20.1 22 Norte 43 Norte 0 -- -- 59
2019-05-30 21:00:00 22.2 23 Norte 35 Norte 0 -- -- 51
2019-05-30 20:00:00 24.6 26 Norte 40 Noroeste 0 -- -- 42
2019-05-30 19:00:00 26.2 24 Norte 38 Norte 0 -- -- 34
2019-05-30 18:00:00 27.1 21 Norte 33 Norte 0 -- -- 28
2019-05-30 17:00:00 27.2 20 Norte 36 Norte 0 -- -- 30
2019-05-30 16:00:00 26.7 19 Norte 33 Noroeste 0 -- -- 31
2019-05-30 15:00:00 25.7 18 Norte 33 Noroeste 0 -- -- 34
2019-05-30 14:00:00 24.7 21 Norte 31 Noroeste 0 -- -- 34
2019-05-30 13:00:00 23.2 23 Norte 34 Noroeste 0 -- -- 38
2019-05-30 12:00:00 22 18 Norte 26 Norte 0 -- -- 43
2019-05-30 11:00:00 19.5 15 Norte 21 Norte 0 -- -- 49
2019-05-30 10:00:00 16.1 6 Norte 10 Norte 0 -- -- 61
2019-05-30 09:00:00 13.3 3 Noroeste 6 Noroeste 0 -- -- 66
2019-05-30 08:00:00 10.3 4 Noroeste 18 Noroeste 0 -- -- 74
2019-05-30 07:00:00 9.1 12 Norte 17 Norte 0 -- -- 80
2019-05-30 06:00:00 8.2 4 Noroeste 7 Noroeste 0 -- -- 83
2019-05-30 05:00:00 8.2 3 Oeste 11 Noroeste 0 -- -- 84
2019-05-30 04:00:00 8.9 9 Noroeste 20 Noroeste 0 -- -- 83
2019-05-30 03:00:00 7.6 10 Noroeste 14 Noroeste 0 -- -- 89
2019-05-30 02:00:00 8.5 9 Noroeste 18 Noroeste 0 -- -- 87
2019-05-30 01:00:00 10.2 12 Noroeste 14 Noroeste 0 -- -- 83
2019-05-30 00:00:00 10.7 5 Norte 13 Noroeste 0 -- -- 81
2019-05-29 23:00:00 12 8 Noroeste 15 Oeste 0 -- -- 73
2019-05-29 22:00:00 13 4 Oeste 24 Norte 0 -- -- 66
2019-05-29 21:00:00 15.2 21 Norte 33 Norte 0 -- -- 56
2019-05-29 20:00:00 16.8 22 Norte 37 Norte 0 -- -- 53
2019-05-29 19:00:00 18.4 21 Norte 36 Norte 0 -- -- 49
2019-05-29 18:00:00 18.9 23 Norte 40 Noroeste 0 -- -- 49
2019-05-29 17:00:00 18.6 24 Noroeste 48 Noroeste 0 -- -- 51
2019-05-29 16:00:00 17.4 30 Noroeste 41 Noroeste 0 -- -- 51
2019-05-29 15:00:00 17.1 17 Norte 38 Noroeste 0 -- -- 48
2019-05-29 14:00:00 17.4 20 Noroeste 40 Norte 0 -- -- 49
2019-05-29 13:00:00 16.8 19 Noroeste 36 Oeste 0 -- -- 47
2019-05-29 12:00:00 16.9 22 Noroeste 33 Noroeste 0 -- -- 51
2019-05-29 11:00:00 14 17 Noroeste 36 Noroeste 0 -- -- 58
2019-05-29 10:00:00 12.9 14 Norte 37 Noroeste 0 -- -- 73
2019-05-29 09:00:00 11.7 17 Oeste 24 Oeste 0 -- -- 83
2019-05-29 08:00:00 10.7 15 Oeste 24 Oeste 0 -- -- 86
2019-05-29 07:00:00 10.8 17 Oeste 24 Oeste 0 -- -- 83
2019-05-29 06:00:00 10.2 15 Oeste 26 Oeste 0 -- -- 86
2019-05-29 05:00:00 10.9 17 Oeste 24 Oeste 0 -- -- 77
2019-05-29 04:00:00 10.9 15 Oeste 27 Oeste 0 -- -- 74
2019-05-29 03:00:00 11.6 21 Noroeste 35 Oeste 0 -- -- 71
2019-05-29 02:00:00 11.6 25 Noroeste 34 Oeste 0 -- -- 69
2019-05-29 01:00:00 10.9 13 Oeste 21 Oeste 0 -- -- 74
2019-05-29 00:00:00 10.9 15 Noroeste 26 Noroeste 0 -- -- 73
2019-05-28 23:00:00 11.5 17 Oeste 39 Noroeste 0 -- -- 69
2019-05-28 22:00:00 12.3 27 Noroeste 36 Noroeste 0 -- -- 67
2019-05-28 21:00:00 12.8 27 Noroeste 48 Noroeste 0 -- -- 66
2019-05-28 20:00:00 14.5 30 Noroeste 49 Noroeste 0 -- -- 59
2019-05-28 19:00:00 14.9 27 Noroeste 51 Noroeste 0 -- -- 58
2019-05-28 18:00:00 16 36 Noroeste 51 Noroeste 0 -- -- 55
2019-05-28 17:00:00 14.9 35 Noroeste 54 Noroeste 0 -- -- 62
2019-05-28 16:00:00 14.6 35 Noroeste 46 Noroeste 0 -- -- 63
2019-05-28 15:00:00 14.9 26 Noroeste 43 Noroeste 0 -- -- 63
2019-05-28 14:00:00 15.9 28 Noroeste 48 Oeste 0 -- -- 57
2019-05-28 13:00:00 16.6 31 Noroeste 48 Noroeste 0 -- -- 55
2019-05-28 12:00:00 12.4 19 Oeste 37 Oeste 0 -- -- 77
2019-05-28 11:00:00 13.4 28 Oeste 41 Noroeste 0 -- -- 69
2019-05-28 10:00:00 13.2 25 Noroeste 36 Noroeste 0 -- -- 64
2019-05-28 09:00:00 11.8 16 Noroeste 38 Noroeste 0 -- -- 71
2019-05-28 08:00:00 11.3 27 Noroeste 42 Noroeste 0 -- -- 71
2019-05-28 07:00:00 9.2 20 Noroeste 29 Noroeste 0 -- -- 78
2019-05-28 06:00:00 8.8 23 Noroeste 30 Noroeste 0 -- -- 79
2019-05-28 05:00:00 9.6 19 Oeste 37 Oeste 0 -- -- 73
2019-05-28 04:00:00 10.4 23 Noroeste 32 Noroeste 0 -- -- 74
2019-05-28 03:00:00 9.9 21 Noroeste 33 Noroeste 0 -- -- 75
2019-05-28 02:00:00 10.9 21 Noroeste 37 Noroeste 0 -- -- 71
2019-05-28 01:00:00 11.2 19 Noroeste 33 Noroeste 0 -- -- 73
2019-05-28 00:00:00 12.2 26 Noroeste 44 Noroeste 0 -- -- 71